createdAt,value
2018-06-05T00:01:50.036Z,73.40
2018-06-05T00:04:18.597Z,73.13
2018-06-05T00:06:47.169Z,73.67
2018-06-05T00:09:15.758Z,74.32
2018-06-05T00:11:44.332Z,73.96
2018-06-05T00:14:13.033Z,74.02
2018-06-05T00:16:41.613Z,74.46
2018-06-05T00:19:10.197Z,74.90
2018-06-05T00:21:38.791Z,75.12
2018-06-05T00:24:07.485Z,74.54
2018-06-05T00:26:36.084Z,75.18
2018-06-05T00:29:04.742Z,75.10
2018-06-05T00:31:33.500Z,75.02
2018-06-05T00:34:02.183Z,76.28
2018-06-05T00:36:30.809Z,75.02
2018-06-05T00:38:59.432Z,75.33
2018-06-05T00:41:28.054Z,74.95
2018-06-05T00:43:56.605Z,75.07
2018-06-05T00:46:25.172Z,75.61
2018-06-05T00:48:53.945Z,74.99
2018-06-05T00:51:33.432Z,74.96
2018-06-05T00:54:01.985Z,76.71
2018-06-05T00:56:30.596Z,77.37
2018-06-05T00:58:59.168Z,76.43
2018-06-05T01:01:27.787Z,76.03
2018-06-05T01:03:56.455Z,76.77
2018-06-05T01:06:25.031Z,77.04
2018-06-05T01:08:53.668Z,76.54
2018-06-05T01:11:22.280Z,76.36
2018-06-05T01:13:50.881Z,77.27
2018-06-05T01:16:19.443Z,77.72
2018-06-05T01:18:48.108Z,77.38
2018-06-05T01:21:16.701Z,78.85
2018-06-05T01:23:45.440Z,78.19
2018-06-05T01:26:14.028Z,77.92
2018-06-05T01:28:42.552Z,77.15
2018-06-05T01:31:11.239Z,77.78
2018-06-05T01:33:39.780Z,77.18
2018-06-05T01:36:08.330Z,77.91
2018-06-05T01:38:36.904Z,77.39
2018-06-05T01:41:05.440Z,76.68
2018-06-05T01:43:34.059Z,77.14
2018-06-05T01:46:02.640Z,77.94
2018-06-05T01:48:31.258Z,78.01
2018-06-05T01:50:59.834Z,77.76
2018-06-05T01:53:28.656Z,78.26
2018-06-05T01:55:57.227Z,78.13
2018-06-05T01:58:26.057Z,79.31
2018-06-05T02:00:54.846Z,78.75
2018-06-05T02:03:23.524Z,79.65
2018-06-05T02:05:52.161Z,79.17
2018-06-05T02:08:20.701Z,79.31
2018-06-05T02:10:49.275Z,79.18
2018-06-05T02:13:17.947Z,78.60
2018-06-05T02:15:46.493Z,78.45
2018-06-05T02:18:15.064Z,78.86
2018-06-05T02:20:43.691Z,78.45
2018-06-05T02:23:12.242Z,77.47
2018-06-05T02:25:40.827Z,78.56
2018-06-05T02:28:09.380Z,77.76
2018-06-05T02:30:37.936Z,77.37
2018-06-05T02:33:06.752Z,77.76
2018-06-05T02:35:35.347Z,77.25
2018-06-05T02:38:03.929Z,76.26
2018-06-05T02:40:32.520Z,76.91
2018-06-05T02:43:01.054Z,76.00
2018-06-05T02:45:30.320Z,76.16
2018-06-05T02:47:58.874Z,75.26
2018-06-05T02:50:27.615Z,75.10
2018-06-05T02:52:56.159Z,75.22
2018-06-05T02:55:24.741Z,75.10
2018-06-05T02:57:53.439Z,74.83
2018-06-05T03:00:22.021Z,75.12
2018-06-05T03:02:50.632Z,74.62
2018-06-05T03:05:19.160Z,74.61
2018-06-05T03:07:47.772Z,74.31
2018-06-05T03:10:16.397Z,74.85
2018-06-05T03:12:44.992Z,74.64
2018-06-05T03:15:13.557Z,73.94
2018-06-05T03:17:42.281Z,74.71
2018-06-05T03:20:10.889Z,74.31
2018-06-05T03:22:39.470Z,74.56
2018-06-05T03:25:08.039Z,73.81
2018-06-05T03:27:36.636Z,74.88
2018-06-05T03:30:05.571Z,74.04
2018-06-05T03:32:34.218Z,73.78
2018-06-05T03:35:02.804Z,73.75
2018-06-05T03:37:31.339Z,73.01
2018-06-05T03:39:59.992Z,74.11
2018-06-05T03:42:28.562Z,75.07
2018-06-05T03:44:57.129Z,74.55
2018-06-05T03:47:25.771Z,73.68
2018-06-05T03:49:54.364Z,74.53
2018-06-05T03:52:22.920Z,74.64
2018-06-05T03:54:51.543Z,74.89
2018-06-05T03:57:20.100Z,74.80
2018-06-05T03:59:48.725Z,73.55
2018-06-05T04:02:17.260Z,74.29
2018-06-05T04:04:45.860Z,74.17
2018-06-05T04:07:14.485Z,74.86
2018-06-05T04:09:43.703Z,75.34
2018-06-05T04:12:12.266Z,74.88
2018-06-05T04:14:41.562Z,75.37
2018-06-05T04:17:10.057Z,73.93
2018-06-05T04:19:38.642Z,74.42
2018-06-05T04:22:07.415Z,73.72
2018-06-05T04:24:36.037Z,74.13
2018-06-05T04:27:04.613Z,74.22
2018-06-05T04:29:33.190Z,73.87
2018-06-05T04:32:01.744Z,73.96
2018-06-05T04:34:30.331Z,73.57
2018-06-05T04:36:58.904Z,73.51
2018-06-05T04:39:27.421Z,72.87
2018-06-05T04:41:56.181Z,72.49
2018-06-05T04:44:24.795Z,72.16
2018-06-05T04:46:53.529Z,73.22
2018-06-05T04:49:22.071Z,72.86
2018-06-05T04:51:50.684Z,73.58
2018-06-05T04:54:19.235Z,72.95
2018-06-05T04:56:47.808Z,72.12
2018-06-05T04:59:16.384Z,73.12
2018-06-05T05:01:44.956Z,72.26
2018-06-05T05:04:13.501Z,72.66
2018-06-05T05:06:42.088Z,72.38
2018-06-05T05:09:10.651Z,71.58
2018-06-05T05:11:39.247Z,72.85
2018-06-05T05:14:07.809Z,72.72
2018-06-05T05:16:36.625Z,72.90
2018-06-05T05:19:05.457Z,73.05
2018-06-05T05:21:34.032Z,71.36
2018-06-05T05:24:02.716Z,72.15
2018-06-05T05:26:31.275Z,71.21
2018-06-05T05:29:00.061Z,70.81
2018-06-05T05:31:28.647Z,70.70
2018-06-05T05:33:57.341Z,71.71
2018-06-05T05:36:25.900Z,70.89
2018-06-05T05:38:54.469Z,69.52
2018-06-05T05:41:23.024Z,70.73
2018-06-05T05:43:51.584Z,69.50
2018-06-05T05:46:20.370Z,68.33
2018-06-05T05:48:48.944Z,69.38
2018-06-05T05:51:17.569Z,68.97
2018-06-05T05:53:46.298Z,69.24
2018-06-05T05:56:14.877Z,69.22
2018-06-05T05:58:43.477Z,70.56
2018-06-05T06:01:12.284Z,68.84
2018-06-05T06:03:40.831Z,68.77
2018-06-05T06:06:09.625Z,68.56
2018-06-05T06:08:38.219Z,68.15
2018-06-05T06:11:06.844Z,68.48
2018-06-05T06:13:35.417Z,68.02
2018-06-05T06:16:04.100Z,67.08
2018-06-05T06:18:32.713Z,67.45
2018-06-05T06:21:01.257Z,67.37
2018-06-05T06:23:29.792Z,67.67
2018-06-05T06:25:58.372Z,68.05
2018-06-05T06:28:26.915Z,68.26
2018-06-05T06:30:55.502Z,66.86
2018-06-05T06:33:24.048Z,66.91
2018-06-05T06:35:52.636Z,66.70
2018-06-05T06:38:21.206Z,65.75
2018-06-05T06:40:50.756Z,66.17
2018-06-05T06:43:19.300Z,66.52
2018-06-05T06:45:48.064Z,66.33
2018-06-05T06:48:16.624Z,65.55
2018-06-05T06:50:45.188Z,66.67
2018-06-05T06:53:13.868Z,67.72
2018-06-05T06:55:42.545Z,69.00
2018-06-05T06:58:11.123Z,66.45
2018-06-05T07:00:39.664Z,67.62
2018-06-05T07:03:08.245Z,67.68
2018-06-05T07:05:36.781Z,64.42
2018-06-05T07:08:05.456Z,67.41
2018-06-05T07:10:34.172Z,64.54
2018-06-05T07:13:02.796Z,62.70
2018-06-05T07:15:32.052Z,63.83
2018-06-05T07:18:00.913Z,64.67
2018-06-05T07:20:29.789Z,64.73
2018-06-05T07:23:00.267Z,63.48
2018-06-05T07:25:28.926Z,64.75
2018-06-05T07:27:57.516Z,65.40
2018-06-05T07:30:26.222Z,65.29
2018-06-05T07:32:54.801Z,65.69
2018-06-05T07:35:23.332Z,66.28
2018-06-05T07:37:51.880Z,65.55
2018-06-05T07:40:20.472Z,65.67
2018-06-05T07:42:49.024Z,65.36
2018-06-05T07:45:17.649Z,66.49
2018-06-05T07:47:46.197Z,66.82
2018-06-05T07:50:15.652Z,66.72
2018-06-05T07:52:44.236Z,66.30
2018-06-05T07:55:12.817Z,66.29
2018-06-05T07:57:41.407Z,65.79
2018-06-05T08:00:10.148Z,65.75
2018-06-05T08:02:38.717Z,65.73
2018-06-05T08:05:07.281Z,65.20
2018-06-05T08:07:35.921Z,66.83
2018-06-05T08:10:04.911Z,66.99
2018-06-05T08:12:33.492Z,67.00
2018-06-05T08:15:02.120Z,65.87
2018-06-05T08:17:30.857Z,66.04
2018-06-05T08:19:59.415Z,64.85
2018-06-05T08:22:36.845Z,66.53
2018-06-05T08:25:05.416Z,66.23
2018-06-05T08:27:34.008Z,66.37
2018-06-05T08:30:02.537Z,66.40
2018-06-05T08:32:31.117Z,65.31
2018-06-05T08:34:59.640Z,66.91
2018-06-05T08:37:28.235Z,66.76
2018-06-05T08:39:57.312Z,66.39
2018-06-05T08:42:25.905Z,66.23
2018-06-05T08:44:54.581Z,64.65
2018-06-05T08:47:23.196Z,65.51
2018-06-05T08:49:51.729Z,66.59
2018-06-05T08:52:20.339Z,65.87
2018-06-05T08:54:48.870Z,65.44
2018-06-05T08:57:17.435Z,65.51
2018-06-05T08:59:46.047Z,65.09
2018-06-05T09:02:14.672Z,66.00
2018-06-05T09:04:43.264Z,66.37
2018-06-05T09:07:11.805Z,65.98
2018-06-05T09:09:40.483Z,65.72
2018-06-05T09:12:09.102Z,65.39
2018-06-05T09:14:37.695Z,65.66
2018-06-05T09:17:06.286Z,65.32
2018-06-05T09:19:35.006Z,65.50
2018-06-05T09:22:03.694Z,65.33
2018-06-05T09:24:32.301Z,64.66
2018-06-05T09:27:00.897Z,64.31
2018-06-05T09:29:29.542Z,64.34
2018-06-05T09:31:58.102Z,64.70
2018-06-05T09:34:26.981Z,64.41
2018-06-05T09:36:55.609Z,64.61
2018-06-05T09:39:24.304Z,65.06
2018-06-05T09:41:52.890Z,63.28
2018-06-05T09:44:21.444Z,63.50
2018-06-05T09:46:50.195Z,63.32
2018-06-05T09:49:18.849Z,62.87
2018-06-05T09:51:47.528Z,63.29
2018-06-05T09:54:16.106Z,63.24
2018-06-05T09:56:44.695Z,62.98
2018-06-05T09:59:13.370Z,63.35
2018-06-05T10:01:41.944Z,61.73
2018-06-05T10:04:10.504Z,62.42
2018-06-05T10:06:39.093Z,61.61
2018-06-05T10:09:08.756Z,61.74
2018-06-05T10:11:37.438Z,62.23
2018-06-05T10:14:06.100Z,62.03
2018-06-05T10:16:34.726Z,61.66
2018-06-05T10:19:03.319Z,60.51
2018-06-05T10:21:32.088Z,60.90
2018-06-05T10:24:00.964Z,61.81
2018-06-05T10:26:29.512Z,60.16
2018-06-05T10:28:58.287Z,61.46
2018-06-05T10:31:26.835Z,60.92
2018-06-05T10:33:55.641Z,60.97
2018-06-05T10:36:24.170Z,61.89
2018-06-05T10:38:52.810Z,61.57
2018-06-05T10:41:21.453Z,61.24
2018-06-05T10:43:50.194Z,58.57
2018-06-05T10:46:18.928Z,59.11
2018-06-05T10:48:47.492Z,56.61
2018-06-05T10:51:16.256Z,57.46
2018-06-05T10:53:45.034Z,57.47
2018-06-05T10:56:13.829Z,58.46
2018-06-05T10:58:42.408Z,58.64
2018-06-05T11:01:11.140Z,58.57
2018-06-05T11:03:39.775Z,60.69
2018-06-05T11:06:08.456Z,61.02
2018-06-05T11:08:37.304Z,60.01
2018-06-05T11:11:05.977Z,59.14
2018-06-05T11:13:34.725Z,59.33
2018-06-05T11:16:03.383Z,59.18
2018-06-05T11:18:31.956Z,56.42
2018-06-05T11:21:00.544Z,55.03
2018-06-05T11:23:29.111Z,55.20
2018-06-05T11:25:57.821Z,53.53
2018-06-05T11:28:26.555Z,51.96
2018-06-05T11:30:55.100Z,53.77
2018-06-05T11:33:23.725Z,52.67
2018-06-05T11:35:52.304Z,53.89
2018-06-05T11:38:21.076Z,54.77
2018-06-05T11:40:49.753Z,54.57
2018-06-05T11:43:18.468Z,54.89
2018-06-05T11:45:47.388Z,58.35
2018-06-05T11:48:16.094Z,56.07
2018-06-05T11:50:44.794Z,55.91
2018-06-05T11:53:13.422Z,53.35
2018-06-05T11:55:42.038Z,53.88
2018-06-05T11:58:10.627Z,54.12
2018-06-05T12:00:39.181Z,54.73
2018-06-05T12:03:07.804Z,54.64
2018-06-05T12:05:36.391Z,54.80
2018-06-05T12:08:05.034Z,55.50
2018-06-05T12:10:33.581Z,54.01
2018-06-05T12:13:02.552Z,54.74
2018-06-05T12:15:31.221Z,53.65
2018-06-05T12:17:59.779Z,55.09
2018-06-05T12:20:28.664Z,55.77
2018-06-05T12:22:57.253Z,55.55
2018-06-05T12:25:25.871Z,56.13
2018-06-05T12:27:54.454Z,56.95
2018-06-05T12:30:23.132Z,56.98
2018-06-05T12:32:51.726Z,55.41
2018-06-05T12:35:20.304Z,56.87
2018-06-05T12:37:48.934Z,56.45
2018-06-05T12:40:17.639Z,55.55
2018-06-05T12:42:46.165Z,53.34
2018-06-05T12:45:14.765Z,53.85
2018-06-05T12:47:43.312Z,53.33
2018-06-05T12:50:11.945Z,53.16
2018-06-05T12:52:40.580Z,52.49
2018-06-05T12:55:09.219Z,53.93
2018-06-05T12:57:37.862Z,52.82
2018-06-05T13:00:06.444Z,52.01
2018-06-05T13:02:35.039Z,53.01
2018-06-05T13:05:03.640Z,51.46
2018-06-05T13:07:32.291Z,51.29
2018-06-05T13:10:00.932Z,50.87
2018-06-05T13:12:29.695Z,51.47
2018-06-05T13:14:58.245Z,51.89
2018-06-05T13:17:26.868Z,52.80
2018-06-05T13:19:55.456Z,53.76
2018-06-05T13:22:24.044Z,53.49
2018-06-05T13:24:52.837Z,52.32
2018-06-05T13:27:21.580Z,52.15
2018-06-05T13:29:50.283Z,51.42
2018-06-05T13:32:19.250Z,50.13
2018-06-05T13:34:47.795Z,51.31
2018-06-05T13:37:16.403Z,49.77
2018-06-05T13:39:45.127Z,48.87
2018-06-05T13:42:13.728Z,49.80
2018-06-05T13:44:42.370Z,48.86
2018-06-05T13:47:10.972Z,49.28
2018-06-05T13:49:39.622Z,49.55
2018-06-05T13:52:08.228Z,50.31
2018-06-05T13:54:36.840Z,49.97
2018-06-05T13:57:05.459Z,50.17
2018-06-05T13:59:34.098Z,50.90
2018-06-05T14:02:02.697Z,49.88
2018-06-05T14:04:31.294Z,49.96
2018-06-05T14:06:59.881Z,48.34
2018-06-05T14:09:28.496Z,49.94
2018-06-05T14:11:57.204Z,49.97
2018-06-05T14:14:26.084Z,49.61
2018-06-05T14:16:54.810Z,50.19
2018-06-05T14:19:23.577Z,50.54
2018-06-05T14:21:52.240Z,51.36
2018-06-05T14:24:20.830Z,51.00
2018-06-05T14:26:49.462Z,50.14
2018-06-05T14:29:18.018Z,50.48
2018-06-05T14:31:46.688Z,49.70
2018-06-05T14:34:15.324Z,49.67
2018-06-05T14:36:43.944Z,50.09
2018-06-05T14:39:12.770Z,50.13
2018-06-05T14:41:41.408Z,48.08
2018-06-05T14:44:10.297Z,49.23
2018-06-05T14:46:38.981Z,48.54
2018-06-05T14:49:07.695Z,47.47
2018-06-05T14:51:36.316Z,48.33
2018-06-05T14:54:04.967Z,48.24
2018-06-05T14:56:33.625Z,48.70
2018-06-05T14:59:02.320Z,49.73
2018-06-05T15:01:31.110Z,48.23
2018-06-05T15:04:00.609Z,48.35
2018-06-05T15:06:29.512Z,47.77
2018-06-05T15:08:58.147Z,48.05
2018-06-05T15:11:26.964Z,48.12
2018-06-05T15:13:55.569Z,48.04
2018-06-05T15:16:24.377Z,49.74
2018-06-05T15:18:53.177Z,48.78
2018-06-05T15:21:21.846Z,48.55
2018-06-05T15:23:50.565Z,45.95
2018-06-05T15:26:19.193Z,48.00
2018-06-05T15:28:47.815Z,48.45
2018-06-05T15:31:16.500Z,46.77
2018-06-05T15:33:45.149Z,46.75
2018-06-05T15:36:13.720Z,47.06
2018-06-05T15:38:42.552Z,45.84
2018-06-05T15:41:11.173Z,47.48
2018-06-05T15:43:39.828Z,46.88
2018-06-05T15:46:08.413Z,47.28
2018-06-05T15:48:36.983Z,48.26
2018-06-05T15:51:05.737Z,48.33
2018-06-05T15:53:34.551Z,48.81
2018-06-05T15:56:03.185Z,48.03
2018-06-05T15:58:31.788Z,48.53
2018-06-05T16:01:00.363Z,49.05
2018-06-05T16:03:29.169Z,48.96
2018-06-05T16:05:57.785Z,49.49
2018-06-05T16:08:26.336Z,49.83
2018-06-05T16:10:55.001Z,48.91
2018-06-05T16:13:23.729Z,47.48
2018-06-05T16:15:52.332Z,47.87
2018-06-05T16:18:20.931Z,47.83
2018-06-05T16:20:49.585Z,48.47
2018-06-05T16:23:18.180Z,48.87
2018-06-05T16:25:46.920Z,48.01
2018-06-05T16:28:15.553Z,48.96
2018-06-05T16:30:45.126Z,47.85
2018-06-05T16:33:13.728Z,48.54
2018-06-05T16:35:42.353Z,47.46
2018-06-05T16:38:10.948Z,48.58
2018-06-05T16:40:39.512Z,47.84
2018-06-05T16:43:08.452Z,48.20
2018-06-05T16:45:37.115Z,48.73
2018-06-05T16:48:06.299Z,49.52
2018-06-05T16:50:35.502Z,49.71
2018-06-05T16:53:04.166Z,50.46
2018-06-05T16:55:32.764Z,49.79
2018-06-05T16:58:01.425Z,48.74
2018-06-05T17:00:30.061Z,49.71
2018-06-05T17:02:58.720Z,48.84
2018-06-05T17:05:27.300Z,49.38
2018-06-05T17:07:57.581Z,48.10
2018-06-05T17:10:26.269Z,48.34
2018-06-05T17:12:55.051Z,49.38
2018-06-05T17:15:23.637Z,49.82
2018-06-05T17:17:52.250Z,49.93
2018-06-05T17:20:20.845Z,50.39
2018-06-05T17:22:49.469Z,50.29
2018-06-05T17:25:18.190Z,50.52
2018-06-05T17:27:46.783Z,50.13
2018-06-05T17:30:15.579Z,50.22
2018-06-05T17:32:44.259Z,50.71
2018-06-05T17:35:12.944Z,50.72
2018-06-05T17:37:41.860Z,49.30
2018-06-05T17:40:10.541Z,48.14
2018-06-05T17:42:39.211Z,49.28
2018-06-05T17:45:07.825Z,49.71
2018-06-05T17:47:36.410Z,50.55
2018-06-05T17:50:05.076Z,51.04
2018-06-05T17:52:33.625Z,50.43
2018-06-05T17:55:02.278Z,50.24
2018-06-05T17:57:30.946Z,50.38
2018-06-05T17:59:59.549Z,50.85
2018-06-05T18:02:28.151Z,50.23
2018-06-05T18:04:56.739Z,50.73
2018-06-05T18:07:25.403Z,51.36
2018-06-05T18:09:53.982Z,51.01
2018-06-05T18:12:22.777Z,50.50
2018-06-05T18:14:51.321Z,49.99
2018-06-05T18:17:19.957Z,49.73
2018-06-05T18:19:48.755Z,49.60
2018-06-05T18:22:17.367Z,49.69
2018-06-05T18:24:45.929Z,49.69
2018-06-05T18:27:14.596Z,49.66
2018-06-05T18:29:43.278Z,50.84
2018-06-05T18:32:11.952Z,51.54
2018-06-05T18:34:40.604Z,51.13
2018-06-05T18:37:09.236Z,51.74
2018-06-05T18:39:38.094Z,51.60
2018-06-05T18:42:06.836Z,50.80
2018-06-05T18:44:35.537Z,52.07
2018-06-05T18:47:04.292Z,51.31
2018-06-05T18:49:32.951Z,51.68
2018-06-05T18:52:02.401Z,52.60
2018-06-05T18:54:31.117Z,54.51
2018-06-05T18:56:59.773Z,55.02
2018-06-05T18:59:28.459Z,55.04
2018-06-05T19:01:57.055Z,54.88
2018-06-05T19:04:25.690Z,54.85
2018-06-05T19:06:54.244Z,55.20
2018-06-05T19:09:23.889Z,54.70
2018-06-05T19:11:52.620Z,55.26
2018-06-05T19:14:21.819Z,55.71
2018-06-05T19:16:52.152Z,56.37
2018-06-05T19:19:20.871Z,57.03
2018-06-05T19:21:49.473Z,56.32
2018-06-05T19:24:18.176Z,56.31
2018-06-05T19:26:47.090Z,57.34
2018-06-05T19:29:16.020Z,56.99
2018-06-05T19:31:44.477Z,57.90
2018-06-05T19:34:13.293Z,58.17
2018-06-05T19:36:41.982Z,58.25
2018-06-05T19:39:10.620Z,58.30
2018-06-05T19:41:39.478Z,57.73
2018-06-05T19:44:08.145Z,57.87
2018-06-05T19:46:36.848Z,58.74
2018-06-05T19:49:05.544Z,59.59
2018-06-05T19:51:34.257Z,59.88
2018-06-05T19:54:02.879Z,59.54
2018-06-05T19:56:31.693Z,60.12
2018-06-05T19:59:00.459Z,59.95
2018-06-05T20:01:29.177Z,59.60
2018-06-05T20:03:57.794Z,59.73
2018-06-05T20:06:26.649Z,63.73
2018-06-05T20:08:55.377Z,61.98
2018-06-05T20:11:24.202Z,60.11
2018-06-05T20:13:53.025Z,60.14
2018-06-05T20:16:21.737Z,60.64
2018-06-05T20:18:50.476Z,59.28
2018-06-05T20:21:19.363Z,59.75
2018-06-05T20:23:48.059Z,59.79
2018-06-05T20:26:16.720Z,59.34
2018-06-05T20:28:45.357Z,59.19
2018-06-05T20:31:14.131Z,60.31
2018-06-05T20:33:42.721Z,60.40
2018-06-05T20:36:11.391Z,59.06
2018-06-05T20:38:39.955Z,60.51
2018-06-05T20:41:08.661Z,58.86
2018-06-05T20:43:37.388Z,59.69
2018-06-05T20:46:06.196Z,59.31
2018-06-05T20:48:34.839Z,59.74
2018-06-05T20:51:03.484Z,58.28
2018-06-05T20:53:32.152Z,58.85
2018-06-05T20:56:00.833Z,58.52
2018-06-05T20:58:29.605Z,60.13
2018-06-05T21:00:58.274Z,60.80
2018-06-05T21:03:26.895Z,61.54
2018-06-05T21:05:55.491Z,61.97
2018-06-05T21:08:24.547Z,62.57
2018-06-05T21:10:53.277Z,64.27
2018-06-05T21:13:22.548Z,65.01
2018-06-05T21:15:51.235Z,63.75
2018-06-05T21:18:19.812Z,63.40
2018-06-05T21:20:48.480Z,63.15
2018-06-05T21:23:17.056Z,62.66
2018-06-05T21:25:45.726Z,62.88
2018-06-05T21:28:14.387Z,65.02
2018-06-05T21:30:42.980Z,66.38
2018-06-05T21:33:11.571Z,66.64
2018-06-05T21:35:40.262Z,67.32
2018-06-05T21:38:08.830Z,66.51
2018-06-05T21:40:37.709Z,67.29
2018-06-05T21:43:06.525Z,67.31
2018-06-05T21:45:35.152Z,66.86
2018-06-05T21:48:03.772Z,69.10
2018-06-05T21:50:32.406Z,68.33
2018-06-05T21:53:01.092Z,69.29
2018-06-05T21:55:29.676Z,69.22
2018-06-05T21:57:58.321Z,68.25
2018-06-05T22:00:26.971Z,67.81
2018-06-05T22:02:55.665Z,68.26
2018-06-05T22:05:24.480Z,68.95
2018-06-05T22:07:53.224Z,68.81
2018-06-05T22:10:21.809Z,67.48
2018-06-05T22:12:50.607Z,66.98
2018-06-05T22:15:19.313Z,66.68
2018-06-05T22:17:48.216Z,66.62
2018-06-05T22:20:16.807Z,67.29
2018-06-05T22:22:45.449Z,67.53
2018-06-05T22:25:13.996Z,67.92
2018-06-05T22:27:42.624Z,68.47
2018-06-05T22:30:11.304Z,68.88
2018-06-05T22:32:40.110Z,67.55
2018-06-05T22:35:08.775Z,68.25
2018-06-05T22:37:37.414Z,68.74
2018-06-05T22:40:06.333Z,66.96
2018-06-05T22:42:35.120Z,67.34
2018-06-05T22:45:03.773Z,66.08
2018-06-05T22:47:32.372Z,66.99
2018-06-05T22:50:01.042Z,66.04
2018-06-05T22:52:29.661Z,65.83
2018-06-05T22:54:58.564Z,66.82
2018-06-05T22:57:27.193Z,66.33
2018-06-05T22:59:55.820Z,65.47
2018-06-05T23:02:24.416Z,65.57
2018-06-05T23:04:53.163Z,66.68
2018-06-05T23:07:21.818Z,67.41
2018-06-05T23:09:50.738Z,68.45
2018-06-05T23:12:19.365Z,70.89
2018-06-05T23:14:47.976Z,71.85
2018-06-05T23:17:16.593Z,72.95
2018-06-05T23:19:45.152Z,73.51
2018-06-05T23:22:13.717Z,73.39
2018-06-05T23:24:42.414Z,73.62
2018-06-05T23:27:11.094Z,73.54
2018-06-05T23:29:39.651Z,73.97
2018-06-05T23:32:08.252Z,72.93
2018-06-05T23:34:36.985Z,72.15
2018-06-05T23:37:05.685Z,72.03
2018-06-05T23:39:34.263Z,72.27
2018-06-05T23:42:03.712Z,72.33
2018-06-05T23:44:32.346Z,73.65
2018-06-05T23:47:01.049Z,72.86
2018-06-05T23:49:29.581Z,72.19
2018-06-05T23:51:59.154Z,71.87
2018-06-05T23:54:27.892Z,71.82
2018-06-05T23:56:56.517Z,72.65
2018-06-05T23:59:25.170Z,72.24
